sensor_id;sensor_type;location;lat;lon;timestamp;pressure;altitude;pressure_sealevel;temperature;humidity
69214;BME280;56325;47.030;18.518;2023-05-11T00:02:02;100434.63;;;13.75;60.59
69214;BME280;56325;47.030;18.518;2023-05-11T00:04:38;100432.44;;;13.79;60.42
69214;BME280;56325;47.030;18.518;2023-05-11T00:07:14;100436.81;;;13.56;61.30
69214;BME280;56325;47.030;18.518;2023-05-11T00:09:49;100436.25;;;13.67;61.22
69214;BME280;56325;47.030;18.518;2023-05-11T00:12:23;100431.59;;;13.73;60.84
69214;BME280;56325;47.030;18.518;2023-05-11T00:14:58;100430.16;;;13.63;60.67
69214;BME280;56325;47.030;18.518;2023-05-11T00:17:32;100428.44;;;13.65;60.77
69214;BME280;56325;47.030;18.518;2023-05-11T00:20:08;100426.34;;;13.60;60.71
69214;BME280;56325;47.030;18.518;2023-05-11T00:22:43;100432.44;;;13.64;60.59
69214;BME280;56325;47.030;18.518;2023-05-11T00:25:18;100420.31;;;13.47;60.97
69214;BME280;56325;47.030;18.518;2023-05-11T00:27:53;100417.56;;;13.62;60.45
69214;BME280;56325;47.030;18.518;2023-05-11T00:30:27;100414.66;;;13.27;61.29
69214;BME280;56325;47.030;18.518;2023-05-11T00:33:02;100411.69;;;13.30;61.29
69214;BME280;56325;47.030;18.518;2023-05-11T00:35:37;100415.59;;;13.24;61.25
69214;BME280;56325;47.030;18.518;2023-05-11T00:38:12;100426.63;;;13.24;61.36
69214;BME280;56325;47.030;18.518;2023-05-11T00:40:47;100412.59;;;13.12;61.51
69214;BME280;56325;47.030;18.518;2023-05-11T00:43:22;100418.28;;;13.09;61.75
69214;BME280;56325;47.030;18.518;2023-05-11T00:45:57;100421.97;;;12.91;62.22
69214;BME280;56325;47.030;18.518;2023-05-11T00:48:31;100414.31;;;12.86;62.41
69214;BME280;56325;47.030;18.518;2023-05-11T00:51:06;100412.22;;;12.81;62.85
69214;BME280;56325;47.030;18.518;2023-05-11T00:53:42;100415.97;;;12.93;62.52
69214;BME280;56325;47.030;18.518;2023-05-11T00:56:17;100415.12;;;13.01;62.27
69214;BME280;56325;47.030;18.518;2023-05-11T00:58:52;100423.69;;;13.03;61.95
69214;BME280;56325;47.030;18.518;2023-05-11T01:01:27;100421.78;;;12.95;62.27
69214;BME280;56325;47.030;18.518;2023-05-11T01:04:02;100410.81;;;12.86;62.46
69214;BME280;56325;47.030;18.518;2023-05-11T01:06:42;100407.28;;;12.85;62.43
69214;BME280;56325;47.030;18.518;2023-05-11T01:09:30;100413.09;;;12.87;62.71
69214;BME280;56325;47.030;18.518;2023-05-11T01:12:09;100412.84;;;12.76;62.52
69214;BME280;56325;47.030;18.518;2023-05-11T01:14:53;100413.56;;;12.62;63.03
69214;BME280;56325;47.030;18.518;2023-05-11T01:17:37;100415.53;;;12.61;63.15
69214;BME280;56325;47.030;18.518;2023-05-11T01:20:17;100418.78;;;12.60;63.09
69214;BME280;56325;47.030;18.518;2023-05-11T01:23:08;100418.59;;;12.63;63.15
69214;BME280;56325;47.030;18.518;2023-05-11T01:25:55;100412.75;;;12.70;62.94
69214;BME280;56325;47.030;18.518;2023-05-11T01:29:04;100413.25;;;12.60;63.06
69214;BME280;56325;47.030;18.518;2023-05-11T01:31:45;100411.44;;;12.57;63.25
69214;BME280;56325;47.030;18.518;2023-05-11T01:34:23;100414.53;;;12.50;63.44
69214;BME280;56325;47.030;18.518;2023-05-11T01:37:04;100417.75;;;12.48;63.51
69214;BME280;56325;47.030;18.518;2023-05-11T01:39:42;100416.59;;;12.64;63.14
69214;BME280;56325;47.030;18.518;2023-05-11T01:42:23;100406.50;;;12.61;62.88
69214;BME280;56325;47.030;18.518;2023-05-11T01:45:00;100413.78;;;12.49;62.89
69214;BME280;56325;47.030;18.518;2023-05-11T01:47:39;100409.53;;;12.39;63.33
69214;BME280;56325;47.030;18.518;2023-05-11T01:50:16;100411.84;;;12.31;63.29
69214;BME280;56325;47.030;18.518;2023-05-11T01:52:54;100412.75;;;12.37;63.34
69214;BME280;56325;47.030;18.518;2023-05-11T01:55:30;100412.00;;;12.37;63.13
69214;BME280;56325;47.030;18.518;2023-05-11T01:58:08;100408.50;;;12.27;63.47
69214;BME280;56325;47.030;18.518;2023-05-11T02:00:44;100402.81;;;12.31;62.85
69214;BME280;56325;47.030;18.518;2023-05-11T02:03:21;100402.09;;;12.21;63.17
69214;BME280;56325;47.030;18.518;2023-05-11T02:05:56;100399.59;;;12.32;63.16
69214;BME280;56325;47.030;18.518;2023-05-11T02:08:32;100400.41;;;12.24;63.31
69214;BME280;56325;47.030;18.518;2023-05-11T02:11:08;100396.87;;;12.23;63.28
69214;BME280;56325;47.030;18.518;2023-05-11T02:13:45;100408.22;;;12.25;62.82
69214;BME280;56325;47.030;18.518;2023-05-11T02:16:21;100397.97;;;12.17;62.93
69214;BME280;56325;47.030;18.518;2023-05-11T02:18:59;100398.75;;;12.17;62.98
69214;BME280;56325;47.030;18.518;2023-05-11T02:21:35;100398.41;;;12.24;62.93
69214;BME280;56325;47.030;18.518;2023-05-11T02:24:11;100391.69;;;12.16;62.88
69214;BME280;56325;47.030;18.518;2023-05-11T02:26:46;100398.91;;;12.13;63.04
69214;BME280;56325;47.030;18.518;2023-05-11T02:29:21;100396.28;;;12.19;62.92
69214;BME280;56325;47.030;18.518;2023-05-11T02:31:57;100394.34;;;12.10;63.18
69214;BME280;56325;47.030;18.518;2023-05-11T02:34:39;100393.31;;;11.99;63.63
69214;BME280;56325;47.030;18.518;2023-05-11T02:37:19;100382.87;;;12.12;63.31
69214;BME280;56325;47.030;18.518;2023-05-11T02:39:59;100392.28;;;12.20;63.13
69214;BME280;56325;47.030;18.518;2023-05-11T02:42:37;100386.66;;;12.14;63.21
69214;BME280;56325;47.030;18.518;2023-05-11T02:45:14;100388.16;;;12.25;62.81
69214;BME280;56325;47.030;18.518;2023-05-11T02:47:52;100391.69;;;12.16;62.99
69214;BME280;56325;47.030;18.518;2023-05-11T02:50:29;100382.63;;;12.25;63.03
69214;BME280;56325;47.030;18.518;2023-05-11T02:53:10;100377.72;;;12.29;63.04
69214;BME280;56325;47.030;18.518;2023-05-11T02:55:49;100386.09;;;12.34;62.84
69214;BME280;56325;47.030;18.518;2023-05-11T02:58:24;100385.34;;;12.34;62.64
69214;BME280;56325;47.030;18.518;2023-05-11T03:01:00;100384.25;;;12.07;63.35
69214;BME280;56325;47.030;18.518;2023-05-11T03:03:36;100386.03;;;12.20;63.33
69214;BME280;56325;47.030;18.518;2023-05-11T03:06:12;100384.31;;;12.22;63.24
69214;BME280;56325;47.030;18.518;2023-05-11T03:08:47;100388.72;;;12.05;63.93
69214;BME280;56325;47.030;18.518;2023-05-11T03:11:22;100385.81;;;11.99;64.27
69214;BME280;56325;47.030;18.518;2023-05-11T03:13:57;100378.94;;;11.95;64.37
69214;BME280;56325;47.030;18.518;2023-05-11T03:16:33;100391.47;;;12.05;64.31
69214;BME280;56325;47.030;18.518;2023-05-11T03:19:09;100391.31;;;12.08;64.11
69214;BME280;56325;47.030;18.518;2023-05-11T03:21:45;100387.22;;;11.95;64.42
69214;BME280;56325;47.030;18.518;2023-05-11T03:24:21;100396.09;;;11.90;64.89
69214;BME280;56325;47.030;18.518;2023-05-11T03:26:56;100390.13;;;11.91;64.76
69214;BME280;56325;47.030;18.518;2023-05-11T03:29:33;100392.84;;;12.00;64.50
69214;BME280;56325;47.030;18.518;2023-05-11T03:32:10;100395.50;;;11.76;65.08
69214;BME280;56325;47.030;18.518;2023-05-11T03:34:45;100386.63;;;11.81;65.50
69214;BME280;56325;47.030;18.518;2023-05-11T03:37:22;100388.63;;;11.81;65.31
69214;BME280;56325;47.030;18.518;2023-05-11T03:39:58;100383.88;;;11.63;65.87
69214;BME280;56325;47.030;18.518;2023-05-11T03:42:35;100389.37;;;11.72;65.97
69214;BME280;56325;47.030;18.518;2023-05-11T03:45:12;100386.34;;;11.79;65.72
69214;BME280;56325;47.030;18.518;2023-05-11T03:47:48;100388.91;;;11.74;65.78
69214;BME280;56325;47.030;18.518;2023-05-11T03:50:26;100399.19;;;11.73;65.75
69214;BME280;56325;47.030;18.518;2023-05-11T03:53:03;100388.31;;;11.70;66.15
69214;BME280;56325;47.030;18.518;2023-05-11T03:55:38;100388.16;;;11.73;65.85
69214;BME280;56325;47.030;18.518;2023-05-11T03:58:12;100386.03;;;11.68;66.14
69214;BME280;56325;47.030;18.518;2023-05-11T04:00:47;100385.09;;;11.71;66.20
69214;BME280;56325;47.030;18.518;2023-05-11T04:03:22;100388.78;;;11.77;66.15
69214;BME280;56325;47.030;18.518;2023-05-11T04:05:59;100385.69;;;11.75;66.19
69214;BME280;56325;47.030;18.518;2023-05-11T04:08:36;100390.91;;;11.82;66.21
69214;BME280;56325;47.030;18.518;2023-05-11T04:11:10;100389.81;;;11.89;65.74
69214;BME280;56325;47.030;18.518;2023-05-11T04:13:45;100384.16;;;11.93;65.87
69214;BME280;56325;47.030;18.518;2023-05-11T04:16:19;100390.09;;;12.00;65.71
69214;BME280;56325;47.030;18.518;2023-05-11T04:18:54;100386.56;;;12.09;65.94
69214;BME280;56325;47.030;18.518;2023-05-11T04:21:29;100396.13;;;12.23;65.27
69214;BME280;56325;47.030;18.518;2023-05-11T04:24:06;100395.31;;;12.31;64.98
69214;BME280;56325;47.030;18.518;2023-05-11T04:26:41;100399.00;;;12.28;65.07
69214;BME280;56325;47.030;18.518;2023-05-11T04:29:15;100396.72;;;12.27;64.54
69214;BME280;56325;47.030;18.518;2023-05-11T04:31:49;100397.81;;;12.20;65.00
69214;BME280;56325;47.030;18.518;2023-05-11T04:34:24;100393.69;;;14.23;80.72
69214;BME280;56325;47.030;18.518;2023-05-11T04:36:59;100385.59;;;14.05;62.89
69214;BME280;56325;47.030;18.518;2023-05-11T04:39:41;100401.72;;;13.33;62.63
69214;BME280;56325;47.030;18.518;2023-05-11T04:42:15;100404.81;;;12.87;63.18
69214;BME280;56325;47.030;18.518;2023-05-11T04:44:52;100406.94;;;12.92;63.41
69214;BME280;56325;47.030;18.518;2023-05-11T04:47:27;100397.53;;;12.75;64.13
69214;BME280;56325;47.030;18.518;2023-05-11T04:50:01;100403.28;;;12.86;63.88
69214;BME280;56325;47.030;18.518;2023-05-11T04:52:38;100406.28;;;12.73;63.95
69214;BME280;56325;47.030;18.518;2023-05-11T04:55:14;100413.56;;;12.62;64.20
69214;BME280;56325;47.030;18.518;2023-05-11T04:57:49;100412.75;;;12.70;64.07
69214;BME280;56325;47.030;18.518;2023-05-11T05:00:24;100411.38;;;12.66;64.02
69214;BME280;56325;47.030;18.518;2023-05-11T05:02:58;100402.63;;;12.67;64.30
69214;BME280;56325;47.030;18.518;2023-05-11T05:05:33;100409.50;;;12.72;64.10
69214;BME280;56325;47.030;18.518;2023-05-11T05:08:08;100414.19;;;12.57;64.42
69214;BME280;56325;47.030;18.518;2023-05-11T05:10:46;100406.47;;;12.70;64.99
69214;BME280;56325;47.030;18.518;2023-05-11T05:13:20;100409.81;;;12.74;64.76
69214;BME280;56325;47.030;18.518;2023-05-11T05:15:55;100405.34;;;12.76;64.54
69214;BME280;56325;47.030;18.518;2023-05-11T05:18:29;100407.34;;;12.76;64.80
69214;BME280;56325;47.030;18.518;2023-05-11T05:21:06;100416.78;;;12.84;64.57
69214;BME280;56325;47.030;18.518;2023-05-11T05:23:40;100412.16;;;12.90;64.58
69214;BME280;56325;47.030;18.518;2023-05-11T05:26:17;100406.63;;;12.90;64.66
69214;BME280;56325;47.030;18.518;2023-05-11T05:28:51;100417.19;;;12.92;64.54
69214;BME280;56325;47.030;18.518;2023-05-11T05:31:26;100422.63;;;13.01;64.03
69214;BME280;56325;47.030;18.518;2023-05-11T05:34:01;100425.59;;;13.21;64.17
69214;BME280;56325;47.030;18.518;2023-05-11T05:36:36;100426.63;;;13.24;63.17
69214;BME280;56325;47.030;18.518;2023-05-11T05:39:11;100423.87;;;13.24;63.13
69214;BME280;56325;47.030;18.518;2023-05-11T05:41:47;100423.44;;;13.40;63.27
69214;BME280;56325;47.030;18.518;2023-05-11T05:44:22;100420.44;;;13.67;66.35
69214;BME280;56325;47.030;18.518;2023-05-11T05:46:57;100422.56;;;14.52;65.64
69214;BME280;56325;47.030;18.518;2023-05-11T05:49:31;100418.50;;;14.88;62.38
69214;BME280;56325;47.030;18.518;2023-05-11T05:52:09;100420.56;;;14.72;59.94
69214;BME280;56325;47.030;18.518;2023-05-11T05:54:44;100419.41;;;14.44;59.97
69214;BME280;56325;47.030;18.518;2023-05-11T05:57:20;100424.75;;;14.48;59.85
69214;BME280;56325;47.030;18.518;2023-05-11T05:59:55;100422.28;;;14.35;60.16
69214;BME280;56325;47.030;18.518;2023-05-11T06:03:32;100414.28;;;14.92;59.06
69214;BME280;56325;47.030;18.518;2023-05-11T06:06:08;100414.28;;;14.92;59.06
69214;BME280;56325;47.030;18.518;2023-05-11T06:08:42;100414.44;;;14.48;59.59
69214;BME280;56325;47.030;18.518;2023-05-11T06:11:18;100417.25;;;14.68;59.60
69214;BME280;56325;47.030;18.518;2023-05-11T06:13:56;100416.28;;;14.92;59.01
69214;BME280;56325;47.030;18.518;2023-05-11T06:16:30;100407.06;;;14.80;58.31
69214;BME280;56325;47.030;18.518;2023-05-11T06:19:06;100401.75;;;14.97;58.24
69214;BME280;56325;47.030;18.518;2023-05-11T06:21:41;100411.91;;;14.85;57.83
69214;BME280;56325;47.030;18.518;2023-05-11T06:24:18;100410.47;;;14.90;58.30
69214;BME280;56325;47.030;18.518;2023-05-11T06:26:53;100403.47;;;15.15;57.76
69214;BME280;56325;47.030;18.518;2023-05-11T06:29:28;100409.84;;;15.21;56.63
69214;BME280;56325;47.030;18.518;2023-05-11T06:32:04;100411.28;;;15.16;56.36
69214;BME280;56325;47.030;18.518;2023-05-11T06:34:41;100412.44;;;15.30;56.66
69214;BME280;56325;47.030;18.518;2023-05-11T06:37:15;100427.81;;;15.51;56.86
69214;BME280;56325;47.030;18.518;2023-05-11T06:39:53;100422.22;;;15.71;56.69
69214;BME280;56325;47.030;18.518;2023-05-11T06:42:28;100415.25;;;15.82;55.67
69214;BME280;56325;47.030;18.518;2023-05-11T06:45:09;100421.34;;;15.86;55.71
69214;BME280;56325;47.030;18.518;2023-05-11T06:47:45;100417.19;;;16.01;54.31
69214;BME280;56325;47.030;18.518;2023-05-11T06:50:21;100412.00;;;16.15;54.40
69214;BME280;56325;47.030;18.518;2023-05-11T06:52:59;100409.25;;;16.20;53.20
69214;BME280;56325;47.030;18.518;2023-05-11T06:55:34;100411.03;;;16.23;52.70
69214;BME280;56325;47.030;18.518;2023-05-11T06:58:09;100413.94;;;16.40;53.67
69214;BME280;56325;47.030;18.518;2023-05-11T07:00:44;100401.34;;;16.50;53.28
69214;BME280;56325;47.030;18.518;2023-05-11T07:03:18;100409.25;;;16.63;52.78
69214;BME280;56325;47.030;18.518;2023-05-11T07:05:54;100410.13;;;16.80;53.93
69214;BME280;56325;47.030;18.518;2023-05-11T07:08:29;100406.84;;;16.76;51.23
69214;BME280;56325;47.030;18.518;2023-05-11T07:11:03;100407.88;;;16.84;51.53
69214;BME280;56325;47.030;18.518;2023-05-11T07:13:38;100413.66;;;16.75;51.76
69214;BME280;56325;47.030;18.518;2023-05-11T07:16:13;100407.16;;;16.89;52.59
69214;BME280;56325;47.030;18.518;2023-05-11T07:18:48;100410.28;;;17.14;52.07
69214;BME280;56325;47.030;18.518;2023-05-11T07:21:23;100407.31;;;17.28;52.25
69214;BME280;56325;47.030;18.518;2023-05-11T07:23:58;100401.75;;;17.45;50.83
69214;BME280;56325;47.030;18.518;2023-05-11T07:26:32;100404.28;;;17.49;49.92
69214;BME280;56325;47.030;18.518;2023-05-11T07:29:07;100403.53;;;17.48;49.84
69214;BME280;56325;47.030;18.518;2023-05-11T07:31:41;100405.88;;;17.66;49.74
69214;BME280;56325;47.030;18.518;2023-05-11T07:34:16;100407.84;;;17.55;49.06
69214;BME280;56325;47.030;18.518;2023-05-11T07:36:52;100403.28;;;17.46;49.20
69214;BME280;56325;47.030;18.518;2023-05-11T07:39:26;100402.56;;;17.62;49.12
69214;BME280;56325;47.030;18.518;2023-05-11T07:42:01;100410.63;;;17.60;48.91
69214;BME280;56325;47.030;18.518;2023-05-11T07:44:36;100400.03;;;17.64;49.50
69214;BME280;56325;47.030;18.518;2023-05-11T07:47:10;100391.22;;;18.05;52.58
69214;BME280;56325;47.030;18.518;2023-05-11T07:49:45;100386.09;;;18.31;48.25
69214;BME280;56325;47.030;18.518;2023-05-11T07:52:21;100377.78;;;18.20;47.04
69214;BME280;56325;47.030;18.518;2023-05-11T07:54:56;100372.75;;;18.19;47.44
69214;BME280;56325;47.030;18.518;2023-05-11T07:57:30;100382.06;;;18.27;46.58
69214;BME280;56325;47.030;18.518;2023-05-11T08:00:06;100382.31;;;18.23;46.28
69214;BME280;56325;47.030;18.518;2023-05-11T08:02:43;100378.06;;;18.17;46.09
69214;BME280;56325;47.030;18.518;2023-05-11T08:05:18;100383.06;;;18.41;46.67
69214;BME280;56325;47.030;18.518;2023-05-11T08:07:55;100382.25;;;18.57;47.58
69214;BME280;56325;47.030;18.518;2023-05-11T08:10:29;100381.25;;;18.49;45.51
69214;BME280;56325;47.030;18.518;2023-05-11T08:13:04;100376.72;;;18.46;45.96
69214;BME280;56325;47.030;18.518;2023-05-11T08:15:38;100373.66;;;18.60;46.42
69214;BME280;56325;47.030;18.518;2023-05-11T08:18:13;100367.50;;;18.84;45.41
69214;BME280;56325;47.030;18.518;2023-05-11T08:20:48;100372.91;;;18.49;45.63
69214;BME280;56325;47.030;18.518;2023-05-11T08:23:24;100370.62;;;18.64;46.09
69214;BME280;56325;47.030;18.518;2023-05-11T08:25:58;100369.59;;;18.67;46.69
69214;BME280;56325;47.030;18.518;2023-05-11T08:28:33;100365.06;;;18.53;45.52
69214;BME280;56325;47.030;18.518;2023-05-11T08:31:07;100365.53;;;18.57;43.62
69214;BME280;56325;47.030;18.518;2023-05-11T08:33:42;100383.25;;;18.71;44.89
69214;BME280;56325;47.030;18.518;2023-05-11T08:36:17;100366.31;;;18.57;44.03
69214;BME280;56325;47.030;18.518;2023-05-11T08:38:52;100362.97;;;18.76;44.61
69214;BME280;56325;47.030;18.518;2023-05-11T08:41:31;100369.75;;;18.91;44.44
69214;BME280;56325;47.030;18.518;2023-05-11T08:44:05;100360.00;;;19.09;43.98
69214;BME280;56325;47.030;18.518;2023-05-11T08:46:44;100361.81;;;19.07;43.74
69214;BME280;56325;47.030;18.518;2023-05-11T08:49:19;100354.78;;;18.94;43.36
69214;BME280;56325;47.030;18.518;2023-05-11T08:51:54;100361.88;;;18.95;43.82
69214;BME280;56325;47.030;18.518;2023-05-11T08:54:30;100359.31;;;19.03;43.67
69214;BME280;56325;47.030;18.518;2023-05-11T08:57:05;100356.81;;;18.99;44.17
69214;BME280;56325;47.030;18.518;2023-05-11T08:59:41;100352.87;;;19.19;44.63
69214;BME280;56325;47.030;18.518;2023-05-11T09:02:18;100346.13;;;19.04;43.84
69214;BME280;56325;47.030;18.518;2023-05-11T09:04:53;100352.78;;;18.95;44.15
69214;BME280;56325;47.030;18.518;2023-05-11T09:07:28;100344.56;;;19.08;43.96
69214;BME280;56325;47.030;18.518;2023-05-11T09:10:07;100356.53;;;19.03;44.06
69214;BME280;56325;47.030;18.518;2023-05-11T09:12:45;100342.47;;;19.20;43.91
69214;BME280;56325;47.030;18.518;2023-05-11T09:15:20;100336.97;;;19.09;44.44
69214;BME280;56325;47.030;18.518;2023-05-11T09:17:55;100340.81;;;19.41;44.19
69214;BME280;56325;47.030;18.518;2023-05-11T09:20:30;100327.91;;;19.38;42.83
69214;BME280;56325;47.030;18.518;2023-05-11T09:23:06;100327.19;;;19.32;42.23
69214;BME280;56325;47.030;18.518;2023-05-11T09:25:42;100333.94;;;19.48;43.80
69214;BME280;56325;47.030;18.518;2023-05-11T09:28:20;100327.12;;;19.43;43.11
69214;BME280;56325;47.030;18.518;2023-05-11T09:30:57;100333.97;;;19.78;44.31
69214;BME280;56325;47.030;18.518;2023-05-11T09:33:32;100338.84;;;19.72;43.40
69214;BME280;56325;47.030;18.518;2023-05-11T09:36:08;100338.69;;;19.88;43.02
69214;BME280;56325;47.030;18.518;2023-05-11T09:39:00;100330.75;;;19.68;40.94
69214;BME280;56325;47.030;18.518;2023-05-11T09:41:36;100330.31;;;19.58;39.88
69214;BME280;56325;47.030;18.518;2023-05-11T09:44:13;100335.00;;;19.75;38.76
69214;BME280;56325;47.030;18.518;2023-05-11T09:46:47;100324.69;;;19.64;39.76
69214;BME280;56325;47.030;18.518;2023-05-11T09:49:28;100323.06;;;19.44;39.56
69214;BME280;56325;47.030;18.518;2023-05-11T09:52:02;100328.47;;;19.67;40.83
69214;BME280;56325;47.030;18.518;2023-05-11T09:54:42;100324.19;;;19.66;39.71
69214;BME280;56325;47.030;18.518;2023-05-11T09:57:27;100323.09;;;19.74;39.40
69214;BME280;56325;47.030;18.518;2023-05-11T10:00:03;100316.47;;;19.77;38.96
69214;BME280;56325;47.030;18.518;2023-05-11T10:02:43;100320.53;;;20.01;37.97
69214;BME280;56325;47.030;18.518;2023-05-11T10:05:18;100314.38;;;20.32;38.62
69214;BME280;56325;47.030;18.518;2023-05-11T10:07:56;100301.19;;;20.33;36.91
69214;BME280;56325;47.030;18.518;2023-05-11T10:10:33;100306.38;;;20.23;36.23
69214;BME280;56325;47.030;18.518;2023-05-11T10:13:09;100297.41;;;20.30;36.73
69214;BME280;56325;47.030;18.518;2023-05-11T10:15:43;100299.75;;;20.69;37.27
69214;BME280;56325;47.030;18.518;2023-05-11T10:18:18;100303.28;;;20.51;36.34
69214;BME280;56325;47.030;18.518;2023-05-11T10:20:53;100285.94;;;20.58;35.80
69214;BME280;56325;47.030;18.518;2023-05-11T10:23:30;100294.22;;;20.82;37.67
69214;BME280;56325;47.030;18.518;2023-05-11T10:26:06;100281.31;;;20.60;36.77
69214;BME280;56325;47.030;18.518;2023-05-11T10:28:41;100293.25;;;20.37;37.42
69214;BME280;56325;47.030;18.518;2023-05-11T10:31:17;100284.94;;;20.55;37.30
69214;BME280;56325;47.030;18.518;2023-05-11T10:33:56;100280.94;;;20.51;38.75
69214;BME280;56325;47.030;18.518;2023-05-11T10:36:31;100276.03;;;20.57;39.89
69214;BME280;56325;47.030;18.518;2023-05-11T10:39:05;100282.69;;;20.29;36.49
69214;BME280;56325;47.030;18.518;2023-05-11T10:41:46;100261.56;;;20.34;36.85
69214;BME280;56325;47.030;18.518;2023-05-11T10:47:40;100258.97;;;20.79;37.41
69214;BME280;56325;47.030;18.518;2023-05-11T10:50:38;100258.53;;;20.56;36.96
69214;BME280;56325;47.030;18.518;2023-05-11T10:56:48;100263.03;;;20.16;36.91
69214;BME280;56325;47.030;18.518;2023-05-11T10:59:44;100258.59;;;20.26;36.71
69214;BME280;56325;47.030;18.518;2023-05-11T11:02:21;100255.41;;;20.17;36.52
69214;BME280;56325;47.030;18.518;2023-05-11T11:04:56;100254.19;;;20.12;36.16
69214;BME280;56325;47.030;18.518;2023-05-11T11:07:55;100243.19;;;20.44;36.93
69214;BME280;56325;47.030;18.518;2023-05-11T11:10:32;100241.25;;;20.34;35.44
69214;BME280;56325;47.030;18.518;2023-05-11T11:13:08;100237.84;;;20.22;36.05
69214;BME280;56325;47.030;18.518;2023-05-11T11:16:09;100238.13;;;20.18;36.79
69214;BME280;56325;47.030;18.518;2023-05-11T11:18:48;100241.38;;;20.47;37.01
69214;BME280;56325;47.030;18.518;2023-05-11T11:21:41;100239.88;;;20.46;35.80
69214;BME280;56325;47.030;18.518;2023-05-11T11:24:43;100237.06;;;20.46;35.95
69214;BME280;56325;47.030;18.518;2023-05-11T11:27:54;100235.56;;;20.45;36.13
69214;BME280;56325;47.030;18.518;2023-05-11T11:30:30;100229.44;;;20.46;36.22
69214;BME280;56325;47.030;18.518;2023-05-11T11:33:31;100248.25;;;20.46;36.49
69214;BME280;56325;47.030;18.518;2023-05-11T11:36:09;100235.19;;;20.54;36.50
69214;BME280;56325;47.030;18.518;2023-05-11T11:38:56;100233.91;;;20.74;35.42
69214;BME280;56325;47.030;18.518;2023-05-11T11:41:32;100235.72;;;20.71;35.11
69214;BME280;56325;47.030;18.518;2023-05-11T11:44:19;100239.78;;;20.70;35.34
69214;BME280;56325;47.030;18.518;2023-05-11T11:47:11;100240.16;;;20.61;34.40
69214;BME280;56325;47.030;18.518;2023-05-11T11:49:49;100233.00;;;20.47;34.54
69214;BME280;56325;47.030;18.518;2023-05-11T11:52:33;100236.84;;;20.62;35.79
69214;BME280;56325;47.030;18.518;2023-05-11T11:55:37;100224.47;;;20.58;35.35
69214;BME280;56325;47.030;18.518;2023-05-11T11:58:55;100236.09;;;20.62;35.61
69214;BME280;56325;47.030;18.518;2023-05-11T12:01:35;100233.22;;;20.68;36.12
69214;BME280;56325;47.030;18.518;2023-05-11T12:04:38;100231.41;;;20.51;35.96
69214;BME280;56325;47.030;18.518;2023-05-11T12:07:18;100228.84;;;20.53;35.79
69214;BME280;56325;47.030;18.518;2023-05-11T12:09:54;100222.94;;;20.38;35.80
69214;BME280;56325;47.030;18.518;2023-05-11T12:12:29;100236.13;;;20.38;36.88
69214;BME280;56325;47.030;18.518;2023-05-11T12:15:06;100230.31;;;20.36;35.82
69214;BME280;56325;47.030;18.518;2023-05-11T12:17:40;100229.69;;;20.24;35.52
69214;BME280;56325;47.030;18.518;2023-05-11T12:20:17;100221.16;;;20.16;36.63
69214;BME280;56325;47.030;18.518;2023-05-11T12:22:53;100228.88;;;20.29;36.45
69214;BME280;56325;47.030;18.518;2023-05-11T12:25:28;100224.19;;;20.37;36.44
69214;BME280;56325;47.030;18.518;2023-05-11T12:28:03;100212.66;;;20.27;35.61
69214;BME280;56325;47.030;18.518;2023-05-11T12:30:38;100216.87;;;20.34;36.54
69214;BME280;56325;47.030;18.518;2023-05-11T12:33:14;100214.78;;;20.40;35.97
69214;BME280;56325;47.030;18.518;2023-05-11T12:35:51;100215.41;;;20.52;37.21
69214;BME280;56325;47.030;18.518;2023-05-11T12:38:27;100218.56;;;20.61;37.15
69214;BME280;56325;47.030;18.518;2023-05-11T12:41:02;100224.00;;;20.73;36.77
69214;BME280;56325;47.030;18.518;2023-05-11T12:43:37;100210.66;;;20.47;36.71
69214;BME280;56325;47.030;18.518;2023-05-11T12:46:11;100210.34;;;20.50;37.31
69214;BME280;56325;47.030;18.518;2023-05-11T12:48:47;100211.78;;;20.57;36.66
69214;BME280;56325;47.030;18.518;2023-05-11T12:51:43;100199.25;;;20.45;36.39
69214;BME280;56325;47.030;18.518;2023-05-11T12:54:27;100207.13;;;20.22;36.97
69214;BME280;56325;47.030;18.518;2023-05-11T12:57:02;100207.13;;;20.22;38.09
69214;BME280;56325;47.030;18.518;2023-05-11T12:59:38;100199.78;;;20.00;38.93
69214;BME280;56325;47.030;18.518;2023-05-11T13:02:16;100209.56;;;19.88;40.38
69214;BME280;56325;47.030;18.518;2023-05-11T13:04:50;100210.34;;;19.88;39.95
69214;BME280;56325;47.030;18.518;2023-05-11T13:07:27;100212.19;;;19.80;41.58
69214;BME280;56325;47.030;18.518;2023-05-11T13:10:03;100207.25;;;19.68;41.38
69214;BME280;56325;47.030;18.518;2023-05-11T13:12:47;100200.50;;;19.57;41.07
69214;BME280;56325;47.030;18.518;2023-05-11T13:15:24;100205.16;;;19.44;40.75
69214;BME280;56325;47.030;18.518;2023-05-11T13:18:01;100209.28;;;19.37;41.18
69214;BME280;56325;47.030;18.518;2023-05-11T13:20:36;100212.16;;;19.26;42.01
69214;BME280;56325;47.030;18.518;2023-05-11T13:23:12;100206.22;;;19.11;42.50
69214;BME280;56325;47.030;18.518;2023-05-11T13:25:52;100216.09;;;19.42;44.05
69214;BME280;56325;47.030;18.518;2023-05-11T13:28:27;100212.91;;;19.26;44.02
69214;BME280;56325;47.030;18.518;2023-05-11T13:31:01;100203.19;;;19.09;43.36
69214;BME280;56325;47.030;18.518;2023-05-11T13:33:36;100206.91;;;19.17;42.94
69214;BME280;56325;47.030;18.518;2023-05-11T13:36:11;100197.56;;;19.14;43.17
69214;BME280;56325;47.030;18.518;2023-05-11T13:38:45;100193.94;;;18.95;43.45
69214;BME280;56325;47.030;18.518;2023-05-11T13:41:21;100206.06;;;18.97;43.29